Antimano, Venezuela
Current Conditions -  °F | °C
As of 1:00 PM on Tuesday 21 Oct 2014 (Local Time) from SVMI Reporting Station
Few Clouds Few Clouds  
Wind Chill: 90°   Ceiling: Unl
Heat Index: 102°   Visibility: 6mi
Dew Point: 77°   Wind: 5mph
Humidity: 66%   Direction: 20°NNE
Pressure: 29.88"   Gusts: NA
Location:  10.47°N, 66.98°W
Report Text: SVMI 211700Z 02004KT 9999 FEW016 32/25 Q1012 NOSIG
Loading
Personal Weather Stations






























Interactive Weather Map
Tropical Storm Tracking
New forecast layout! Learn more

10-Day Weather Forecast

Advertisements
Track Severe Weather on mobile